createdAt,value
2019-04-10T00:00:11.466Z,99.90
2019-04-10T00:03:00.485Z,99.90
2019-04-10T00:05:50.067Z,99.90
2019-04-10T00:08:39.497Z,99.90
2019-04-10T00:11:29.002Z,99.90
2019-04-10T00:14:18.573Z,99.90
2019-04-10T00:17:08.982Z,99.90
2019-04-10T00:19:58.210Z,99.90
2019-04-10T00:22:47.219Z,99.90
2019-04-10T00:25:37.082Z,99.90
2019-04-10T00:28:27.607Z,99.90
2019-04-10T00:31:17.922Z,99.90
2019-04-10T00:34:07.380Z,99.90
2019-04-10T00:36:57.530Z,99.90
2019-04-10T00:39:47.394Z,99.90
2019-04-10T00:42:36.997Z,99.90
2019-04-10T00:45:27.170Z,99.90
2019-04-10T00:48:17.456Z,99.90
2019-04-10T00:51:06.849Z,99.90
2019-04-10T00:53:57.203Z,99.90
2019-04-10T00:56:46.799Z,99.90
2019-04-10T00:59:36.603Z,99.90
2019-04-10T01:02:25.579Z,99.90
2019-04-10T01:05:15.275Z,99.90
2019-04-10T01:08:04.681Z,99.90
2019-04-10T01:10:54.669Z,99.90
2019-04-10T01:13:45.419Z,99.90
2019-04-10T01:16:35.603Z,99.90
2019-04-10T01:19:25.927Z,99.90
2019-04-10T01:22:15.206Z,99.90
2019-04-10T01:25:06.163Z,99.90
2019-04-10T01:27:54.992Z,99.90
2019-04-10T01:30:44.762Z,99.90
2019-04-10T01:33:33.600Z,99.90
2019-04-10T01:36:23.123Z,99.90
2019-04-10T01:39:13.819Z,99.90
2019-04-10T01:42:03.985Z,99.90
2019-04-10T01:44:53.243Z,99.90
2019-04-10T01:47:43.487Z,99.90
2019-04-10T01:50:35.516Z,99.90
2019-04-10T01:53:24.570Z,99.90
2019-04-10T01:56:22.019Z,99.90
2019-04-10T01:59:05.551Z,99.90
2019-04-10T02:02:00.755Z,99.90
2019-04-10T02:04:51.377Z,99.90
2019-04-10T02:07:40.320Z,99.90
2019-04-10T02:10:29.711Z,99.90
2019-04-10T02:13:19.193Z,99.90
2019-04-10T02:16:08.570Z,99.90
2019-04-10T02:18:57.775Z,99.90
2019-04-10T02:21:47.819Z,99.90
2019-04-10T02:24:36.767Z,99.90
2019-04-10T02:27:26.742Z,99.90
2019-04-10T02:30:19.093Z,99.90
2019-04-10T02:33:08.431Z,99.90
2019-04-10T02:35:59.156Z,99.90
2019-04-10T02:38:59.320Z,99.90
2019-04-10T02:41:39.274Z,99.90
2019-04-10T02:44:30.474Z,99.90
2019-04-10T02:47:19.265Z,99.90
2019-04-10T02:50:12.525Z,99.90
2019-04-10T02:53:01.467Z,99.90
2019-04-10T02:55:51.635Z,99.90
2019-04-10T02:58:42.599Z,99.90
2019-04-10T03:01:33.535Z,99.90
2019-04-10T03:04:24.428Z,99.90
2019-04-10T03:07:15.671Z,99.90
2019-04-10T03:10:19.103Z,99.90
2019-04-10T03:12:59.322Z,99.90
2019-04-10T03:15:51.702Z,99.90
2019-04-10T03:18:41.075Z,99.90
2019-04-10T03:21:31.277Z,99.90
2019-04-10T03:24:21.917Z,99.90
2019-04-10T03:27:12.235Z,99.90
2019-04-10T03:30:03.048Z,99.90
2019-04-10T03:33:06.709Z,99.90
2019-04-10T03:35:56.871Z,99.90
2019-04-10T03:38:55.241Z,99.90
2019-04-10T03:41:36.890Z,99.90
2019-04-10T03:44:27.680Z,99.90
2019-04-10T03:47:17.500Z,99.90
2019-04-10T03:50:06.704Z,99.90
2019-04-10T03:52:56.666Z,99.90
2019-04-10T03:55:47.287Z,99.90
2019-04-10T03:58:37.714Z,99.90
2019-04-10T04:01:27.541Z,99.90
2019-04-10T04:04:17.499Z,99.90
2019-04-10T04:07:07.416Z,99.90
2019-04-10T04:09:56.235Z,99.90
2019-04-10T04:12:45.437Z,99.90
2019-04-10T04:15:35.846Z,99.90
2019-04-10T04:18:25.007Z,99.90
2019-04-10T04:21:15.222Z,99.90
2019-04-10T04:24:04.567Z,99.90
2019-04-10T04:26:53.229Z,99.90
2019-04-10T04:29:41.990Z,99.90
2019-04-10T04:32:31.504Z,99.90
2019-04-10T04:35:22.161Z,99.90
2019-04-10T04:38:11.738Z,99.90
2019-04-10T04:41:00.746Z,99.90
2019-04-10T04:43:50.275Z,99.90
2019-04-10T04:46:39.147Z,99.90
2019-04-10T04:49:28.418Z,99.90
2019-04-10T04:52:18.333Z,99.90
2019-04-10T04:55:07.933Z,99.90
2019-04-10T04:57:57.847Z,99.90
2019-04-10T05:00:46.706Z,99.90
2019-04-10T05:03:35.989Z,99.90
2019-04-10T05:06:26.550Z,99.90
2019-04-10T05:09:27.362Z,99.90
2019-04-10T05:12:07.189Z,99.90
2019-04-10T05:14:56.177Z,99.90
2019-04-10T05:17:46.864Z,99.90
2019-04-10T05:20:43.711Z,99.90
2019-04-10T05:23:27.023Z,99.90
2019-04-10T05:26:16.540Z,99.90
2019-04-10T05:29:06.283Z,99.90
2019-04-10T05:31:56.492Z,99.90
2019-04-10T05:34:46.691Z,99.90
2019-04-10T05:37:37.730Z,99.90
2019-04-10T05:40:28.001Z,99.90
2019-04-10T05:43:17.652Z,99.90
2019-04-10T05:46:07.190Z,99.90
2019-04-10T05:48:56.004Z,99.90
2019-04-10T05:51:45.734Z,99.90
2019-04-10T05:54:35.337Z,99.90
2019-04-10T05:57:24.652Z,99.90
2019-04-10T06:00:15.304Z,99.90
2019-04-10T06:03:04.034Z,99.90
2019-04-10T06:05:54.208Z,99.90
2019-04-10T06:08:44.028Z,99.90
2019-04-10T06:11:33.687Z,99.90
2019-04-10T06:14:22.442Z,99.90
2019-04-10T06:17:11.760Z,99.90
2019-04-10T06:20:01.082Z,99.90
2019-04-10T06:22:50.713Z,99.90
2019-04-10T06:25:41.862Z,99.90
2019-04-10T06:28:31.069Z,99.90
2019-04-10T06:31:20.801Z,99.90
2019-04-10T06:34:11.157Z,99.90
2019-04-10T06:37:01.961Z,99.90
2019-04-10T06:40:04.484Z,99.90
2019-04-10T06:42:47.533Z,99.90
2019-04-10T06:45:33.573Z,99.90
2019-04-10T06:48:23.655Z,99.90
2019-04-10T06:51:12.764Z,99.90
2019-04-10T06:54:07.029Z,99.90
2019-04-10T06:56:52.576Z,99.90
2019-04-10T06:59:41.976Z,99.90
2019-04-10T07:02:33.867Z,99.90
2019-04-10T07:05:22.474Z,99.90
2019-04-10T07:08:16.437Z,99.90
2019-04-10T07:11:08.375Z,99.90
2019-04-10T07:13:53.875Z,99.90
2019-04-10T07:16:44.327Z,99.90
2019-04-10T07:19:34.443Z,99.90
2019-04-10T07:22:24.911Z,99.90
2019-04-10T07:25:15.712Z,99.90
2019-04-10T07:28:07.535Z,99.90
2019-04-10T07:31:00.216Z,99.90
2019-04-10T07:33:50.031Z,99.90
2019-04-10T07:36:41.377Z,99.90
2019-04-10T07:39:31.795Z,99.90
2019-04-10T07:42:26.718Z,99.90
2019-04-10T07:45:11.050Z,99.90
2019-04-10T07:48:00.392Z,99.90
2019-04-10T07:50:49.092Z,99.90
2019-04-10T07:53:39.453Z,99.90
2019-04-10T07:56:29.317Z,99.90
2019-04-10T07:59:18.602Z,99.90
2019-04-10T08:02:10.032Z,99.90
2019-04-10T08:05:00.180Z,99.90
2019-04-10T08:07:52.758Z,99.90
2019-04-10T08:10:42.433Z,99.90
2019-04-10T08:13:30.998Z,99.90
2019-04-10T08:16:21.054Z,99.90
2019-04-10T08:19:10.403Z,99.90
2019-04-10T08:21:59.065Z,99.90
2019-04-10T08:24:49.172Z,99.90
2019-04-10T08:27:38.876Z,99.90
2019-04-10T08:30:27.953Z,99.90
2019-04-10T08:33:17.821Z,99.90
2019-04-10T08:36:07.464Z,99.90
2019-04-10T08:38:57.390Z,99.90
2019-04-10T08:41:46.486Z,99.90
2019-04-10T08:44:36.101Z,99.90
2019-04-10T08:47:26.887Z,99.90
2019-04-10T08:50:17.381Z,99.90
2019-04-10T08:53:07.318Z,99.90
2019-04-10T08:55:56.812Z,99.90
2019-04-10T08:58:48.182Z,99.90
2019-04-10T09:01:38.072Z,99.90
2019-04-10T09:04:28.688Z,99.90
2019-04-10T09:07:17.976Z,99.90
2019-04-10T09:10:08.213Z,99.90
2019-04-10T09:12:57.963Z,99.90
2019-04-10T09:15:47.931Z,99.90
2019-04-10T09:18:37.400Z,99.90
2019-04-10T09:21:26.618Z,99.90
2019-04-10T09:24:15.841Z,99.90
2019-04-10T09:27:04.752Z,99.90
2019-04-10T09:29:54.598Z,99.90
2019-04-10T09:32:44.423Z,99.90
2019-04-10T09:35:34.178Z,99.90
2019-04-10T09:38:23.307Z,99.90
2019-04-10T09:41:12.480Z,99.90
2019-04-10T09:44:02.478Z,99.90
2019-04-10T09:46:52.177Z,99.90
2019-04-10T09:49:46.154Z,99.90
2019-04-10T09:52:32.559Z,99.90
2019-04-10T09:55:22.226Z,99.90
2019-04-10T09:58:11.574Z,99.90
2019-04-10T10:01:02.988Z,99.90
2019-04-10T10:03:52.819Z,99.90
2019-04-10T10:06:41.381Z,99.90
2019-04-10T10:09:30.779Z,99.90
2019-04-10T10:12:20.269Z,99.90
2019-04-10T10:15:11.397Z,99.90
2019-04-10T10:18:01.300Z,99.90
2019-04-10T10:20:52.184Z,99.90
2019-04-10T10:23:43.038Z,99.90
2019-04-10T10:26:32.975Z,99.90
2019-04-10T10:29:23.749Z,99.90
2019-04-10T10:32:12.931Z,99.90
2019-04-10T10:35:03.102Z,99.90
2019-04-10T10:37:52.202Z,99.90
2019-04-10T10:40:41.543Z,99.90
2019-04-10T10:43:30.210Z,99.90
2019-04-10T10:46:19.712Z,99.90
2019-04-10T10:49:10.446Z,99.90
2019-04-10T10:51:59.777Z,99.90
2019-04-10T10:54:49.410Z,99.90
2019-04-10T10:57:39.548Z,99.90
2019-04-10T11:00:29.543Z,99.90
2019-04-10T11:03:18.703Z,99.90
2019-04-10T11:06:08.709Z,99.90
2019-04-10T11:08:58.156Z,99.90
2019-04-10T11:11:47.276Z,99.90
2019-04-10T11:14:37.217Z,99.90
2019-04-10T11:17:28.055Z,99.90
2019-04-10T11:20:17.967Z,99.90
2019-04-10T11:23:07.267Z,99.90
2019-04-10T11:25:57.688Z,99.90
2019-04-10T11:28:47.903Z,99.90
2019-04-10T11:31:38.268Z,99.90
2019-04-10T11:34:29.356Z,99.90
2019-04-10T11:37:32.130Z,99.90
2019-04-10T11:40:12.456Z,99.90
2019-04-10T11:43:04.770Z,99.90
2019-04-10T11:45:54.130Z,99.90
2019-04-10T11:48:45.509Z,99.90
2019-04-10T11:51:36.114Z,99.90
2019-04-10T11:54:28.194Z,99.90
2019-04-10T11:57:16.690Z,99.90
2019-04-10T12:00:12.259Z,99.90
2019-04-10T12:03:01.385Z,99.90
2019-04-10T12:05:52.621Z,99.90
2019-04-10T12:09:04.199Z,99.90
2019-04-10T12:11:33.128Z,99.90
2019-04-10T12:14:23.713Z,99.90
2019-04-10T12:17:12.412Z,99.90
2019-04-10T12:20:02.884Z,99.90
2019-04-10T12:22:52.504Z,99.90
2019-04-10T12:25:42.975Z,99.90
2019-04-10T12:28:32.319Z,99.90
2019-04-10T12:31:21.848Z,99.90
2019-04-10T12:34:11.568Z,99.90
2019-04-10T12:37:00.822Z,99.90
2019-04-10T12:39:50.211Z,99.90
2019-04-10T12:42:39.074Z,99.90
2019-04-10T12:45:28.370Z,99.90
2019-04-10T12:48:17.183Z,99.90
2019-04-10T12:51:06.164Z,99.90
2019-04-10T12:53:56.150Z,99.90
2019-04-10T12:56:46.368Z,99.90
2019-04-10T12:59:36.331Z,99.90
2019-04-10T13:02:26.191Z,99.90
2019-04-10T13:05:16.720Z,99.90
2019-04-10T13:08:15.824Z,99.90
2019-04-10T13:10:56.578Z,99.90
2019-04-10T13:13:46.337Z,99.90
2019-04-10T13:16:36.212Z,99.90
2019-04-10T13:19:27.099Z,99.90
2019-04-10T13:22:16.452Z,99.90
2019-04-10T13:25:08.148Z,99.90
2019-04-10T13:27:57.028Z,99.90
2019-04-10T13:30:52.410Z,99.90
2019-04-10T13:33:37.002Z,99.90
2019-04-10T13:36:25.942Z,99.90
2019-04-10T13:39:17.761Z,99.90
2019-04-10T13:42:07.262Z,99.90
2019-04-10T13:44:57.172Z,99.90
2019-04-10T13:47:48.061Z,99.90
2019-04-10T13:50:38.957Z,99.90
2019-04-10T13:53:28.290Z,99.90
2019-04-10T13:56:17.173Z,99.90
2019-04-10T13:59:06.809Z,99.90
2019-04-10T14:01:56.488Z,99.90
2019-04-10T14:04:47.262Z,99.90
2019-04-10T14:07:37.035Z,99.90
2019-04-10T14:10:27.919Z,99.90
2019-04-10T14:13:18.287Z,99.90
2019-04-10T14:16:08.555Z,99.90
2019-04-10T14:18:57.787Z,99.90
2019-04-10T14:21:46.807Z,99.90
2019-04-10T14:24:42.873Z,99.90
2019-04-10T14:27:28.309Z,99.90
2019-04-10T14:30:37.803Z,99.90
2019-04-10T14:33:28.245Z,99.90
2019-04-10T14:36:18.034Z,99.90
2019-04-10T14:39:17.643Z,99.90
2019-04-10T14:42:04.381Z,99.90
2019-04-10T14:44:55.093Z,99.90
2019-04-10T14:47:44.486Z,99.90
2019-04-10T14:50:33.700Z,99.90
2019-04-10T14:53:22.721Z,99.90
2019-04-10T14:56:11.989Z,99.90
2019-04-10T14:59:02.080Z,99.90
2019-04-10T15:01:52.523Z,99.90
2019-04-10T15:04:42.243Z,99.90
2019-04-10T15:07:31.425Z,99.90
2019-04-10T15:10:20.778Z,99.90
2019-04-10T15:13:15.700Z,99.90
2019-04-10T15:16:00.889Z,99.90
2019-04-10T15:18:50.285Z,99.90
2019-04-10T15:21:38.878Z,99.90
2019-04-10T15:24:28.049Z,99.20
2019-04-10T15:27:17.342Z,99.90
2019-04-10T15:30:08.644Z,99.60
2019-04-10T15:32:58.240Z,99.80
2019-04-10T15:35:47.079Z,99.90
2019-04-10T15:38:36.279Z,99.90
2019-04-10T15:41:25.409Z,99.70
2019-04-10T15:44:15.295Z,99.90
2019-04-10T15:47:14.187Z,99.50
2019-04-10T15:49:57.729Z,99.40
2019-04-10T15:52:47.435Z,98.60
2019-04-10T15:55:36.376Z,98.10
2019-04-10T15:58:26.457Z,98.20
2019-04-10T16:01:18.064Z,98.50
2019-04-10T16:04:08.144Z,97.20
2019-04-10T16:06:58.359Z,97.80
2019-04-10T16:09:51.972Z,97.10
2019-04-10T16:12:39.529Z,97.40
2019-04-10T16:15:30.195Z,97.30
2019-04-10T16:18:23.772Z,97.40
2019-04-10T16:21:13.066Z,97.50
2019-04-10T16:24:09.939Z,97.60
2019-04-10T16:26:59.987Z,97.00
2019-04-10T16:29:49.624Z,97.20
2019-04-10T16:32:38.369Z,96.50
2019-04-10T16:35:27.636Z,97.00
2019-04-10T16:38:17.057Z,96.90
2019-04-10T16:41:07.889Z,96.20
2019-04-10T16:43:57.112Z,96.00
2019-04-10T16:46:49.386Z,94.80
2019-04-10T16:49:37.655Z,95.30
2019-04-10T16:52:27.120Z,95.70
2019-04-10T16:55:16.117Z,96.20
2019-04-10T16:58:05.714Z,96.50
2019-04-10T17:00:55.873Z,95.90
2019-04-10T17:03:44.828Z,94.90
2019-04-10T17:06:34.497Z,95.10
2019-04-10T17:09:25.628Z,96.20
2019-04-10T17:12:15.590Z,97.30
2019-04-10T17:15:10.283Z,98.00
2019-04-10T17:17:59.682Z,98.90
2019-04-10T17:20:49.058Z,99.90
2019-04-10T17:23:37.853Z,99.90
2019-04-10T17:26:27.611Z,99.90
2019-04-10T17:29:17.214Z,99.90
2019-04-10T17:32:06.869Z,99.90
2019-04-10T17:34:57.089Z,99.90
2019-04-10T17:37:47.766Z,99.90
2019-04-10T17:40:45.822Z,99.90
2019-04-10T17:43:28.640Z,99.90
2019-04-10T17:46:19.402Z,99.90
2019-04-10T17:49:10.872Z,99.90
2019-04-10T17:52:03.319Z,99.90
2019-04-10T17:54:51.251Z,99.90
2019-04-10T17:57:44.504Z,99.90
2019-04-10T18:00:39.868Z,99.90
2019-04-10T18:03:39.586Z,99.90
2019-04-10T18:06:19.497Z,99.90
2019-04-10T18:09:10.297Z,99.90
2019-04-10T18:12:01.007Z,99.90
2019-04-10T18:14:51.393Z,99.90
2019-04-10T18:17:40.867Z,99.90
2019-04-10T18:20:31.628Z,99.90
2019-04-10T18:23:20.534Z,99.90
2019-04-10T18:26:10.760Z,99.90
2019-04-10T18:29:00.930Z,99.90
2019-04-10T18:31:52.075Z,99.90
2019-04-10T18:34:42.430Z,99.90
2019-04-10T18:37:32.799Z,99.90
2019-04-10T18:40:21.657Z,99.90
2019-04-10T18:43:11.878Z,99.90
2019-04-10T18:46:10.251Z,99.90
2019-04-10T18:48:52.299Z,99.90
2019-04-10T18:51:42.392Z,99.90
2019-04-10T18:54:31.972Z,99.90
2019-04-10T18:57:22.025Z,99.90
2019-04-10T19:00:12.838Z,99.90
2019-04-10T19:03:20.100Z,99.90
2019-04-10T19:06:12.021Z,99.90
2019-04-10T19:09:12.443Z,99.90
2019-04-10T19:11:52.845Z,99.90
2019-04-10T19:14:42.564Z,99.90
2019-04-10T19:17:33.182Z,99.90
2019-04-10T19:20:22.907Z,99.90
2019-04-10T19:23:13.020Z,99.90
2019-04-10T19:26:03.085Z,99.90
2019-04-10T19:28:52.925Z,99.90
2019-04-10T19:31:43.745Z,99.90
2019-04-10T19:34:33.694Z,99.90
2019-04-10T19:37:24.874Z,99.90
2019-04-10T19:40:15.711Z,99.90
2019-04-10T19:43:06.122Z,99.90
2019-04-10T19:45:54.676Z,99.90
2019-04-10T19:48:48.938Z,99.90
2019-04-10T19:51:36.943Z,99.90
2019-04-10T19:54:26.150Z,99.90
2019-04-10T19:57:15.988Z,99.90
2019-04-10T20:00:10.558Z,99.90
2019-04-10T20:03:00.086Z,99.90
2019-04-10T20:05:49.325Z,99.90
2019-04-10T20:08:39.826Z,99.90
2019-04-10T20:11:37.845Z,99.90
2019-04-10T20:14:22.355Z,99.90
2019-04-10T20:17:11.941Z,99.90
2019-04-10T20:20:02.741Z,99.90
2019-04-10T20:22:53.493Z,99.90
2019-04-10T20:25:42.956Z,99.90
2019-04-10T20:28:33.109Z,99.90
2019-04-10T20:31:26.289Z,99.90
2019-04-10T20:34:15.792Z,99.90
2019-04-10T20:37:08.437Z,99.90
2019-04-10T20:39:55.888Z,99.90
2019-04-10T20:42:46.588Z,99.90
2019-04-10T20:45:36.462Z,99.90
2019-04-10T20:48:26.509Z,99.90
2019-04-10T20:51:16.584Z,99.90
2019-04-10T20:54:06.552Z,99.90
2019-04-10T20:56:57.047Z,99.90
2019-04-10T20:59:46.028Z,99.90
2019-04-10T21:02:36.218Z,99.90
2019-04-10T21:05:26.201Z,99.90
2019-04-10T21:08:15.759Z,99.90
2019-04-10T21:11:05.596Z,99.90
2019-04-10T21:13:55.046Z,99.90
2019-04-10T21:16:44.350Z,99.90
2019-04-10T21:19:35.382Z,99.90
2019-04-10T21:22:24.473Z,99.90
2019-04-10T21:25:14.914Z,99.90
2019-04-10T21:28:04.821Z,99.90
2019-04-10T21:30:58.781Z,99.90
2019-04-10T21:33:55.283Z,99.90
2019-04-10T21:36:44.097Z,99.90
2019-04-10T21:39:33.986Z,99.90
2019-04-10T21:42:25.302Z,99.90
2019-04-10T21:45:14.298Z,99.90
2019-04-10T21:48:03.533Z,99.90
2019-04-10T21:50:53.753Z,99.90
2019-04-10T21:53:43.342Z,99.90
2019-04-10T21:56:33.079Z,99.90
2019-04-10T21:59:22.910Z,99.90
2019-04-10T22:02:13.070Z,99.90
2019-04-10T22:05:03.813Z,99.90
2019-04-10T22:08:05.016Z,99.90
2019-04-10T22:10:54.489Z,99.90
2019-04-10T22:13:44.513Z,99.90
2019-04-10T22:16:34.038Z,99.90
2019-04-10T22:19:23.462Z,99.90
2019-04-10T22:22:12.906Z,99.90
2019-04-10T22:25:01.909Z,99.90
2019-04-10T22:27:50.738Z,99.90
2019-04-10T22:30:40.028Z,99.90
2019-04-10T22:33:30.012Z,99.90
2019-04-10T22:36:19.203Z,99.90
2019-04-10T22:39:11.170Z,99.90
2019-04-10T22:41:59.719Z,99.90
2019-04-10T22:44:49.779Z,99.90
2019-04-10T22:47:39.439Z,99.90
2019-04-10T22:50:29.210Z,99.90
2019-04-10T22:53:19.354Z,99.90
2019-04-10T22:56:08.993Z,99.90
2019-04-10T22:58:59.574Z,99.90
2019-04-10T23:01:59.613Z,99.90
2019-04-10T23:04:39.253Z,99.90
2019-04-10T23:07:28.753Z,99.90
2019-04-10T23:10:19.066Z,99.90
2019-04-10T23:13:10.275Z,99.90
2019-04-10T23:15:59.946Z,99.90
2019-04-10T23:18:49.787Z,99.90
2019-04-10T23:21:39.288Z,99.90
2019-04-10T23:24:29.825Z,99.90
2019-04-10T23:27:19.830Z,99.90
2019-04-10T23:30:12.791Z,99.90
2019-04-10T23:33:01.968Z,99.90
2019-04-10T23:35:51.815Z,99.90
2019-04-10T23:38:41.761Z,99.90
2019-04-10T23:41:31.732Z,99.90
2019-04-10T23:44:21.205Z,99.90
2019-04-10T23:47:09.720Z,99.90
2019-04-10T23:49:59.709Z,99.90
2019-04-10T23:52:49.787Z,99.90
2019-04-10T23:55:39.866Z,99.90
2019-04-10T23:58:28.398Z,99.90
